sensor_id;sensor_type;location;lat;lon;timestamp;P1;durP1;ratioP1;P2;durP2;ratioP2
9124;SDS011;4597;48.730;9.114;2023-02-20T00:01:50;5.97;;;3.40;;
9124;SDS011;4597;48.730;9.114;2023-02-20T00:04:19;5.10;;;3.20;;
9124;SDS011;4597;48.730;9.114;2023-02-20T00:06:44;5.97;;;3.33;;
9124;SDS011;4597;48.730;9.114;2023-02-20T00:09:10;6.80;;;3.50;;
9124;SDS011;4597;48.730;9.114;2023-02-20T00:11:36;5.30;;;2.90;;
9124;SDS011;4597;48.730;9.114;2023-02-20T00:14:02;3.97;;;3.17;;
9124;SDS011;4597;48.730;9.114;2023-02-20T00:16:27;4.63;;;3.00;;
9124;SDS011;4597;48.730;9.114;2023-02-20T00:18:53;4.67;;;3.10;;
9124;SDS011;4597;48.730;9.114;2023-02-20T00:21:18;5.07;;;3.10;;
9124;SDS011;4597;48.730;9.114;2023-02-20T00:23:44;5.90;;;3.10;;
9124;SDS011;4597;48.730;9.114;2023-02-20T00:26:10;8.73;;;3.40;;
9124;SDS011;4597;48.730;9.114;2023-02-20T00:28:37;5.60;;;3.10;;
9124;SDS011;4597;48.730;9.114;2023-02-20T00:31:04;6.77;;;3.77;;
9124;SDS011;4597;48.730;9.114;2023-02-20T00:33:31;6.07;;;3.20;;
9124;SDS011;4597;48.730;9.114;2023-02-20T00:35:56;4.80;;;3.47;;
9124;SDS011;4597;48.730;9.114;2023-02-20T00:38:22;4.20;;;3.07;;
9124;SDS011;4597;48.730;9.114;2023-02-20T00:40:48;4.83;;;2.97;;
9124;SDS011;4597;48.730;9.114;2023-02-20T00:43:13;5.80;;;3.10;;
9124;SDS011;4597;48.730;9.114;2023-02-20T00:45:39;4.50;;;3.37;;
9124;SDS011;4597;48.730;9.114;2023-02-20T00:48:04;4.87;;;3.43;;
9124;SDS011;4597;48.730;9.114;2023-02-20T00:50:30;5.70;;;3.47;;
9124;SDS011;4597;48.730;9.114;2023-02-20T00:52:55;6.07;;;3.50;;
9124;SDS011;4597;48.730;9.114;2023-02-20T00:55:21;6.50;;;3.50;;
9124;SDS011;4597;48.730;9.114;2023-02-20T00:57:46;5.57;;;3.37;;
9124;SDS011;4597;48.730;9.114;2023-02-20T01:00:17;5.43;;;3.50;;
9124;SDS011;4597;48.730;9.114;2023-02-20T01:02:45;6.23;;;3.40;;
9124;SDS011;4597;48.730;9.114;2023-02-20T01:05:10;5.53;;;3.07;;
9124;SDS011;4597;48.730;9.114;2023-02-20T01:07:36;7.43;;;3.30;;
9124;SDS011;4597;48.730;9.114;2023-02-20T01:10:01;4.73;;;3.40;;
9124;SDS011;4597;48.730;9.114;2023-02-20T01:12:27;5.57;;;3.53;;
9124;SDS011;4597;48.730;9.114;2023-02-20T01:14:52;6.43;;;3.40;;
9124;SDS011;4597;48.730;9.114;2023-02-20T01:17:18;4.87;;;3.60;;
9124;SDS011;4597;48.730;9.114;2023-02-20T01:19:44;4.63;;;3.43;;
9124;SDS011;4597;48.730;9.114;2023-02-20T01:22:09;5.93;;;3.93;;
9124;SDS011;4597;48.730;9.114;2023-02-20T01:24:35;5.63;;;3.10;;
9124;SDS011;4597;48.730;9.114;2023-02-20T01:27:00;5.97;;;3.40;;
9124;SDS011;4597;48.730;9.114;2023-02-20T01:29:26;8.23;;;3.40;;
9124;SDS011;4597;48.730;9.114;2023-02-20T01:31:51;4.77;;;3.40;;
9124;SDS011;4597;48.730;9.114;2023-02-20T01:34:17;3.83;;;3.10;;
9124;SDS011;4597;48.730;9.114;2023-02-20T01:36:44;5.80;;;3.33;;
9124;SDS011;4597;48.730;9.114;2023-02-20T01:39:11;6.33;;;3.70;;
9124;SDS011;4597;48.730;9.114;2023-02-20T01:41:37;7.83;;;3.50;;
9124;SDS011;4597;48.730;9.114;2023-02-20T01:44:03;5.67;;;3.60;;
9124;SDS011;4597;48.730;9.114;2023-02-20T01:48:58;3.83;;;3.50;;
9124;SDS011;4597;48.730;9.114;2023-02-20T01:51:24;3.93;;;3.23;;
9124;SDS011;4597;48.730;9.114;2023-02-20T01:53:51;4.63;;;2.93;;
9124;SDS011;4597;48.730;9.114;2023-02-20T01:56:17;6.10;;;3.63;;
9124;SDS011;4597;48.730;9.114;2023-02-20T01:58:43;4.33;;;3.63;;
9124;SDS011;4597;48.730;9.114;2023-02-20T02:01:10;5.27;;;3.57;;
9124;SDS011;4597;48.730;9.114;2023-02-20T02:03:38;5.23;;;3.20;;
9124;SDS011;4597;48.730;9.114;2023-02-20T02:06:07;4.47;;;3.60;;
9124;SDS011;4597;48.730;9.114;2023-02-20T02:08:35;6.23;;;4.07;;
9124;SDS011;4597;48.730;9.114;2023-02-20T02:11:04;5.30;;;3.57;;
9124;SDS011;4597;48.730;9.114;2023-02-20T02:13:34;7.53;;;3.63;;
9124;SDS011;4597;48.730;9.114;2023-02-20T02:19:11;7.37;;;3.77;;
9124;SDS011;4597;48.730;9.114;2023-02-20T02:24:53;4.30;;;3.70;;
9124;SDS011;4597;48.730;9.114;2023-02-20T02:33:32;7.10;;;3.60;;
9124;SDS011;4597;48.730;9.114;2023-02-20T02:36:26;4.73;;;3.17;;
9124;SDS011;4597;48.730;9.114;2023-02-20T02:39:02;8.27;;;3.60;;
9124;SDS011;4597;48.730;9.114;2023-02-20T02:41:48;6.83;;;3.63;;
9124;SDS011;4597;48.730;9.114;2023-02-20T02:44:37;5.97;;;3.80;;
9124;SDS011;4597;48.730;9.114;2023-02-20T02:47:34;5.43;;;3.73;;
9124;SDS011;4597;48.730;9.114;2023-02-20T02:50:18;6.90;;;4.03;;
9124;SDS011;4597;48.730;9.114;2023-02-20T02:52:49;6.13;;;3.80;;
9124;SDS011;4597;48.730;9.114;2023-02-20T02:55:20;5.63;;;4.00;;
9124;SDS011;4597;48.730;9.114;2023-02-20T02:57:48;6.70;;;4.83;;
9124;SDS011;4597;48.730;9.114;2023-02-20T03:03:20;5.90;;;3.97;;
9124;SDS011;4597;48.730;9.114;2023-02-20T03:05:56;5.07;;;3.63;;
9124;SDS011;4597;48.730;9.114;2023-02-20T03:08:32;7.40;;;4.30;;
9124;SDS011;4597;48.730;9.114;2023-02-20T03:11:05;6.17;;;4.00;;
9124;SDS011;4597;48.730;9.114;2023-02-20T03:13:43;8.63;;;4.00;;
9124;SDS011;4597;48.730;9.114;2023-02-20T03:16:50;7.03;;;4.03;;
9124;SDS011;4597;48.730;9.114;2023-02-20T03:19:51;5.97;;;3.77;;
9124;SDS011;4597;48.730;9.114;2023-02-20T03:22:21;5.70;;;4.23;;
9124;SDS011;4597;48.730;9.114;2023-02-20T03:24:58;6.60;;;3.90;;
9124;SDS011;4597;48.730;9.114;2023-02-20T03:30:05;5.20;;;3.53;;
9124;SDS011;4597;48.730;9.114;2023-02-20T03:32:51;5.17;;;3.97;;
9124;SDS011;4597;48.730;9.114;2023-02-20T03:36:05;6.33;;;3.93;;
9124;SDS011;4597;48.730;9.114;2023-02-20T03:38:53;5.53;;;3.63;;
9124;SDS011;4597;48.730;9.114;2023-02-20T03:41:42;4.63;;;3.63;;
9124;SDS011;4597;48.730;9.114;2023-02-20T03:44:28;8.03;;;3.83;;
9124;SDS011;4597;48.730;9.114;2023-02-20T03:46:56;5.37;;;4.20;;
9124;SDS011;4597;48.730;9.114;2023-02-20T03:49:26;6.07;;;3.83;;
9124;SDS011;4597;48.730;9.114;2023-02-20T03:52:18;5.37;;;3.73;;
9124;SDS011;4597;48.730;9.114;2023-02-20T03:54:44;8.23;;;4.80;;
9124;SDS011;4597;48.730;9.114;2023-02-20T03:57:14;6.97;;;3.60;;
9124;SDS011;4597;48.730;9.114;2023-02-20T04:02:37;4.57;;;3.60;;
9124;SDS011;4597;48.730;9.114;2023-02-20T04:05:07;5.67;;;4.00;;
9124;SDS011;4597;48.730;9.114;2023-02-20T04:07:44;6.17;;;3.57;;
9124;SDS011;4597;48.730;9.114;2023-02-20T04:10:17;4.20;;;3.50;;
9124;SDS011;4597;48.730;9.114;2023-02-20T04:12:50;3.87;;;3.50;;
9124;SDS011;4597;48.730;9.114;2023-02-20T04:15:18;4.90;;;3.33;;
9124;SDS011;4597;48.730;9.114;2023-02-20T04:17:47;6.27;;;3.63;;
9124;SDS011;4597;48.730;9.114;2023-02-20T04:20:15;4.07;;;3.20;;
9124;SDS011;4597;48.730;9.114;2023-02-20T04:22:42;8.03;;;3.90;;
9124;SDS011;4597;48.730;9.114;2023-02-20T04:28:07;5.07;;;3.40;;
9124;SDS011;4597;48.730;9.114;2023-02-20T04:30:33;5.17;;;3.40;;
9124;SDS011;4597;48.730;9.114;2023-02-20T04:32:59;5.13;;;4.07;;
9124;SDS011;4597;48.730;9.114;2023-02-20T04:35:24;5.23;;;3.90;;
9124;SDS011;4597;48.730;9.114;2023-02-20T04:37:50;7.87;;;4.20;;
9124;SDS011;4597;48.730;9.114;2023-02-20T04:40:16;6.37;;;3.90;;
9124;SDS011;4597;48.730;9.114;2023-02-20T04:42:43;6.83;;;4.10;;
9124;SDS011;4597;48.730;9.114;2023-02-20T04:45:09;7.70;;;4.07;;
9124;SDS011;4597;48.730;9.114;2023-02-20T04:47:34;4.67;;;4.00;;
9124;SDS011;4597;48.730;9.114;2023-02-20T04:50:00;6.17;;;3.93;;
9124;SDS011;4597;48.730;9.114;2023-02-20T04:52:26;5.47;;;3.53;;
9124;SDS011;4597;48.730;9.114;2023-02-20T04:54:51;5.67;;;3.50;;
9124;SDS011;4597;48.730;9.114;2023-02-20T04:57:17;6.17;;;4.10;;
9124;SDS011;4597;48.730;9.114;2023-02-20T04:59:43;7.23;;;3.93;;
9124;SDS011;4597;48.730;9.114;2023-02-20T05:02:09;4.30;;;3.20;;
9124;SDS011;4597;48.730;9.114;2023-02-20T05:04:35;5.17;;;3.50;;
9124;SDS011;4597;48.730;9.114;2023-02-20T05:07:00;3.33;;;3.00;;
9124;SDS011;4597;48.730;9.114;2023-02-20T05:09:27;4.30;;;2.97;;
9124;SDS011;4597;48.730;9.114;2023-02-20T05:11:52;4.47;;;3.03;;
9124;SDS011;4597;48.730;9.114;2023-02-20T05:14:18;4.73;;;3.17;;
9124;SDS011;4597;48.730;9.114;2023-02-20T05:16:45;4.67;;;3.07;;
9124;SDS011;4597;48.730;9.114;2023-02-20T05:19:12;3.97;;;3.10;;
9124;SDS011;4597;48.730;9.114;2023-02-20T05:21:40;4.33;;;3.60;;
9124;SDS011;4597;48.730;9.114;2023-02-20T05:24:25;6.20;;;4.20;;
9124;SDS011;4597;48.730;9.114;2023-02-20T05:26:52;5.27;;;4.57;;
9124;SDS011;4597;48.730;9.114;2023-02-20T05:29:18;7.20;;;4.87;;
9124;SDS011;4597;48.730;9.114;2023-02-20T05:31:43;7.53;;;4.03;;
9124;SDS011;4597;48.730;9.114;2023-02-20T05:34:09;7.97;;;3.50;;
9124;SDS011;4597;48.730;9.114;2023-02-20T05:36:34;4.67;;;3.60;;
9124;SDS011;4597;48.730;9.114;2023-02-20T05:39:00;5.53;;;3.73;;
9124;SDS011;4597;48.730;9.114;2023-02-20T05:41:26;5.93;;;3.73;;
9124;SDS011;4597;48.730;9.114;2023-02-20T05:43:51;4.23;;;3.17;;
9124;SDS011;4597;48.730;9.114;2023-02-20T05:46:21;5.07;;;3.43;;
9124;SDS011;4597;48.730;9.114;2023-02-20T05:48:50;5.33;;;3.33;;
9124;SDS011;4597;48.730;9.114;2023-02-20T05:51:20;4.93;;;3.40;;
9124;SDS011;4597;48.730;9.114;2023-02-20T05:53:53;7.33;;;3.27;;
9124;SDS011;4597;48.730;9.114;2023-02-20T05:56:18;4.57;;;3.00;;
9124;SDS011;4597;48.730;9.114;2023-02-20T05:58:44;6.70;;;3.50;;
9124;SDS011;4597;48.730;9.114;2023-02-20T06:01:24;4.90;;;3.13;;
9124;SDS011;4597;48.730;9.114;2023-02-20T06:03:51;5.87;;;3.17;;
9124;SDS011;4597;48.730;9.114;2023-02-20T06:06:18;5.97;;;3.07;;
9124;SDS011;4597;48.730;9.114;2023-02-20T06:08:43;3.47;;;3.17;;
9124;SDS011;4597;48.730;9.114;2023-02-20T06:11:10;4.83;;;3.20;;
9124;SDS011;4597;48.730;9.114;2023-02-20T06:13:42;4.67;;;3.97;;
9124;SDS011;4597;48.730;9.114;2023-02-20T06:16:09;4.27;;;3.13;;
9124;SDS011;4597;48.730;9.114;2023-02-20T06:18:38;5.97;;;4.13;;
9124;SDS011;4597;48.730;9.114;2023-02-20T06:21:08;4.27;;;3.87;;
9124;SDS011;4597;48.730;9.114;2023-02-20T06:23:35;7.30;;;4.07;;
9124;SDS011;4597;48.730;9.114;2023-02-20T06:26:02;5.80;;;3.50;;
9124;SDS011;4597;48.730;9.114;2023-02-20T06:28:28;8.10;;;5.63;;
9124;SDS011;4597;48.730;9.114;2023-02-20T06:30:54;9.17;;;4.40;;
9124;SDS011;4597;48.730;9.114;2023-02-20T06:33:20;5.40;;;3.67;;
9124;SDS011;4597;48.730;9.114;2023-02-20T06:35:45;3.63;;;3.23;;
9124;SDS011;4597;48.730;9.114;2023-02-20T06:38:11;5.77;;;3.43;;
9124;SDS011;4597;48.730;9.114;2023-02-20T06:40:37;7.50;;;3.57;;
9124;SDS011;4597;48.730;9.114;2023-02-20T06:43:03;3.10;;;2.63;;
9124;SDS011;4597;48.730;9.114;2023-02-20T06:45:29;6.53;;;3.43;;
9124;SDS011;4597;48.730;9.114;2023-02-20T06:47:54;4.37;;;3.27;;
9124;SDS011;4597;48.730;9.114;2023-02-20T06:50:20;4.27;;;3.07;;
9124;SDS011;4597;48.730;9.114;2023-02-20T06:52:46;6.27;;;3.17;;
9124;SDS011;4597;48.730;9.114;2023-02-20T06:55:11;4.87;;;3.07;;
9124;SDS011;4597;48.730;9.114;2023-02-20T06:57:37;4.00;;;3.43;;
9124;SDS011;4597;48.730;9.114;2023-02-20T07:00:03;4.80;;;3.83;;
9124;SDS011;4597;48.730;9.114;2023-02-20T07:02:29;6.33;;;3.13;;
9124;SDS011;4597;48.730;9.114;2023-02-20T07:04:54;5.50;;;3.07;;
9124;SDS011;4597;48.730;9.114;2023-02-20T07:07:20;5.37;;;2.97;;
9124;SDS011;4597;48.730;9.114;2023-02-20T07:09:45;4.63;;;3.10;;
9124;SDS011;4597;48.730;9.114;2023-02-20T07:12:11;4.63;;;3.20;;
9124;SDS011;4597;48.730;9.114;2023-02-20T07:14:36;3.73;;;3.03;;
9124;SDS011;4597;48.730;9.114;2023-02-20T07:17:02;7.00;;;4.10;;
9124;SDS011;4597;48.730;9.114;2023-02-20T07:19:27;7.07;;;4.17;;
9124;SDS011;4597;48.730;9.114;2023-02-20T07:21:53;5.07;;;3.60;;
9124;SDS011;4597;48.730;9.114;2023-02-20T07:24:18;5.70;;;3.60;;
9124;SDS011;4597;48.730;9.114;2023-02-20T07:26:44;5.60;;;3.53;;
9124;SDS011;4597;48.730;9.114;2023-02-20T07:29:11;4.27;;;3.50;;
9124;SDS011;4597;48.730;9.114;2023-02-20T07:31:37;7.23;;;3.43;;
9124;SDS011;4597;48.730;9.114;2023-02-20T07:34:03;7.43;;;5.27;;
9124;SDS011;4597;48.730;9.114;2023-02-20T07:36:29;5.97;;;4.53;;
9124;SDS011;4597;48.730;9.114;2023-02-20T07:38:55;8.20;;;4.30;;
9124;SDS011;4597;48.730;9.114;2023-02-20T07:41:23;6.50;;;3.90;;
9124;SDS011;4597;48.730;9.114;2023-02-20T07:43:49;7.20;;;4.10;;
9124;SDS011;4597;48.730;9.114;2023-02-20T07:46:15;6.60;;;3.97;;
9124;SDS011;4597;48.730;9.114;2023-02-20T07:48:41;3.60;;;3.30;;
9124;SDS011;4597;48.730;9.114;2023-02-20T07:51:06;4.73;;;2.97;;
9124;SDS011;4597;48.730;9.114;2023-02-20T07:53:32;7.73;;;3.80;;
9124;SDS011;4597;48.730;9.114;2023-02-20T07:55:57;4.37;;;3.40;;
9124;SDS011;4597;48.730;9.114;2023-02-20T07:58:23;3.43;;;3.23;;
9124;SDS011;4597;48.730;9.114;2023-02-20T08:00:49;6.03;;;3.47;;
9124;SDS011;4597;48.730;9.114;2023-02-20T08:03:15;3.70;;;2.87;;
9124;SDS011;4597;48.730;9.114;2023-02-20T08:05:41;6.33;;;3.10;;
9124;SDS011;4597;48.730;9.114;2023-02-20T08:08:07;5.23;;;3.20;;
9124;SDS011;4597;48.730;9.114;2023-02-20T08:10:32;5.73;;;3.83;;
9124;SDS011;4597;48.730;9.114;2023-02-20T08:12:58;6.70;;;4.33;;
9124;SDS011;4597;48.730;9.114;2023-02-20T08:15:23;5.33;;;3.80;;
9124;SDS011;4597;48.730;9.114;2023-02-20T08:17:49;6.07;;;3.70;;
9124;SDS011;4597;48.730;9.114;2023-02-20T08:20:15;6.13;;;3.60;;
9124;SDS011;4597;48.730;9.114;2023-02-20T08:22:43;3.60;;;3.30;;
9124;SDS011;4597;48.730;9.114;2023-02-20T08:25:09;4.20;;;3.33;;
9124;SDS011;4597;48.730;9.114;2023-02-20T08:27:35;6.67;;;3.60;;
9124;SDS011;4597;48.730;9.114;2023-02-20T08:30:02;4.97;;;3.67;;
9124;SDS011;4597;48.730;9.114;2023-02-20T08:32:30;5.57;;;4.00;;
9124;SDS011;4597;48.730;9.114;2023-02-20T08:34:55;5.50;;;3.63;;
9124;SDS011;4597;48.730;9.114;2023-02-20T08:37:21;4.40;;;3.43;;
9124;SDS011;4597;48.730;9.114;2023-02-20T08:39:46;10.20;;;5.37;;
9124;SDS011;4597;48.730;9.114;2023-02-20T08:42:14;13.23;;;4.90;;
9124;SDS011;4597;48.730;9.114;2023-02-20T08:44:40;4.43;;;3.33;;
9124;SDS011;4597;48.730;9.114;2023-02-20T08:47:05;4.90;;;3.30;;
9124;SDS011;4597;48.730;9.114;2023-02-20T08:49:31;4.80;;;2.77;;
9124;SDS011;4597;48.730;9.114;2023-02-20T08:51:56;5.70;;;3.07;;
9124;SDS011;4597;48.730;9.114;2023-02-20T08:54:22;3.80;;;3.10;;
9124;SDS011;4597;48.730;9.114;2023-02-20T08:56:48;9.80;;;3.67;;
9124;SDS011;4597;48.730;9.114;2023-02-20T08:59:14;10.47;;;3.73;;
9124;SDS011;4597;48.730;9.114;2023-02-20T09:01:40;7.93;;;2.97;;
9124;SDS011;4597;48.730;9.114;2023-02-20T09:04:06;8.00;;;3.03;;
9124;SDS011;4597;48.730;9.114;2023-02-20T09:06:33;3.87;;;3.23;;
9124;SDS011;4597;48.730;9.114;2023-02-20T09:08:58;3.20;;;2.40;;
9124;SDS011;4597;48.730;9.114;2023-02-20T09:11:24;4.47;;;2.63;;
9124;SDS011;4597;48.730;9.114;2023-02-20T09:13:50;4.33;;;2.77;;
9124;SDS011;4597;48.730;9.114;2023-02-20T09:16:18;8.00;;;2.47;;
9124;SDS011;4597;48.730;9.114;2023-02-20T09:18:44;3.47;;;2.47;;
9124;SDS011;4597;48.730;9.114;2023-02-20T09:21:11;3.10;;;2.40;;
9124;SDS011;4597;48.730;9.114;2023-02-20T09:23:38;4.80;;;2.60;;
9124;SDS011;4597;48.730;9.114;2023-02-20T09:26:03;4.37;;;2.80;;
9124;SDS011;4597;48.730;9.114;2023-02-20T09:28:29;6.77;;;3.60;;
9124;SDS011;4597;48.730;9.114;2023-02-20T09:30:54;5.73;;;3.10;;
9124;SDS011;4597;48.730;9.114;2023-02-20T09:33:21;5.90;;;2.63;;
9124;SDS011;4597;48.730;9.114;2023-02-20T09:35:47;8.90;;;3.50;;
9124;SDS011;4597;48.730;9.114;2023-02-20T09:38:16;6.83;;;3.40;;
9124;SDS011;4597;48.730;9.114;2023-02-20T09:40:42;3.73;;;2.63;;
9124;SDS011;4597;48.730;9.114;2023-02-20T09:43:16;5.83;;;2.93;;
9124;SDS011;4597;48.730;9.114;2023-02-20T09:46:22;3.87;;;2.60;;
9124;SDS011;4597;48.730;9.114;2023-02-20T09:48:52;6.67;;;2.40;;
9124;SDS011;4597;48.730;9.114;2023-02-20T09:51:20;5.23;;;2.30;;
9124;SDS011;4597;48.730;9.114;2023-02-20T09:53:53;3.53;;;2.00;;
9124;SDS011;4597;48.730;9.114;2023-02-20T09:56:27;2.50;;;1.97;;
9124;SDS011;4597;48.730;9.114;2023-02-20T09:59:06;3.67;;;2.53;;
9124;SDS011;4597;48.730;9.114;2023-02-20T10:01:42;3.73;;;2.20;;
9124;SDS011;4597;48.730;9.114;2023-02-20T10:04:18;4.47;;;2.23;;
9124;SDS011;4597;48.730;9.114;2023-02-20T10:06:49;7.37;;;2.10;;
9124;SDS011;4597;48.730;9.114;2023-02-20T10:09:17;2.53;;;1.70;;
9124;SDS011;4597;48.730;9.114;2023-02-20T10:25:59;4.10;;;2.10;;
9124;SDS011;4597;48.730;9.114;2023-02-20T10:28:27;3.10;;;1.90;;
9124;SDS011;4597;48.730;9.114;2023-02-20T10:33:27;3.97;;;1.90;;
9124;SDS011;4597;48.730;9.114;2023-02-20T10:38:54;2.13;;;1.70;;
9124;SDS011;4597;48.730;9.114;2023-02-20T10:41:32;3.53;;;1.97;;
9124;SDS011;4597;48.730;9.114;2023-02-20T10:44:04;3.17;;;1.90;;
9124;SDS011;4597;48.730;9.114;2023-02-20T10:46:36;3.10;;;2.03;;
9124;SDS011;4597;48.730;9.114;2023-02-20T10:49:09;4.30;;;1.80;;
9124;SDS011;4597;48.730;9.114;2023-02-20T10:51:41;6.63;;;1.90;;
9124;SDS011;4597;48.730;9.114;2023-02-20T10:54:17;4.30;;;2.10;;
9124;SDS011;4597;48.730;9.114;2023-02-20T10:57:04;3.13;;;1.63;;
9124;SDS011;4597;48.730;9.114;2023-02-20T10:59:39;4.13;;;2.00;;
9124;SDS011;4597;48.730;9.114;2023-02-20T11:02:24;5.23;;;1.83;;
9124;SDS011;4597;48.730;9.114;2023-02-20T11:05:06;2.30;;;1.80;;
9124;SDS011;4597;48.730;9.114;2023-02-20T11:07:35;2.63;;;1.97;;
9124;SDS011;4597;48.730;9.114;2023-02-20T11:10:02;2.67;;;1.63;;
9124;SDS011;4597;48.730;9.114;2023-02-20T11:12:29;3.33;;;1.90;;
9124;SDS011;4597;48.730;9.114;2023-02-20T11:15:12;4.00;;;1.80;;
9124;SDS011;4597;48.730;9.114;2023-02-20T11:17:41;2.40;;;1.80;;
9124;SDS011;4597;48.730;9.114;2023-02-20T11:23:13;2.40;;;1.40;;
9124;SDS011;4597;48.730;9.114;2023-02-20T11:28:44;3.80;;;1.70;;
9124;SDS011;4597;48.730;9.114;2023-02-20T11:31:18;3.47;;;1.80;;
9124;SDS011;4597;48.730;9.114;2023-02-20T11:33:46;3.40;;;1.93;;
9124;SDS011;4597;48.730;9.114;2023-02-20T11:36:15;3.23;;;1.50;;
9124;SDS011;4597;48.730;9.114;2023-02-20T11:38:45;3.57;;;1.63;;
9124;SDS011;4597;48.730;9.114;2023-02-20T11:41:22;4.37;;;2.10;;
9124;SDS011;4597;48.730;9.114;2023-02-20T11:44:15;2.47;;;1.83;;
9124;SDS011;4597;48.730;9.114;2023-02-20T11:46:45;2.53;;;1.77;;
9124;SDS011;4597;48.730;9.114;2023-02-20T11:49:21;5.47;;;1.93;;
9124;SDS011;4597;48.730;9.114;2023-02-20T11:51:49;3.90;;;1.97;;
9124;SDS011;4597;48.730;9.114;2023-02-20T11:54:16;2.63;;;1.60;;
9124;SDS011;4597;48.730;9.114;2023-02-20T12:02:09;3.20;;;2.30;;
9124;SDS011;4597;48.730;9.114;2023-02-20T12:04:35;3.47;;;1.67;;
9124;SDS011;4597;48.730;9.114;2023-02-20T12:07:00;2.80;;;2.00;;
9124;SDS011;4597;48.730;9.114;2023-02-20T12:09:48;3.90;;;1.60;;
9124;SDS011;4597;48.730;9.114;2023-02-20T12:12:19;2.43;;;1.73;;
9124;SDS011;4597;48.730;9.114;2023-02-20T12:14:48;4.47;;;1.87;;
9124;SDS011;4597;48.730;9.114;2023-02-20T12:17:24;1.93;;;1.70;;
9124;SDS011;4597;48.730;9.114;2023-02-20T12:20:00;2.03;;;1.23;;
9124;SDS011;4597;48.730;9.114;2023-02-20T12:22:34;3.67;;;1.60;;
9124;SDS011;4597;48.730;9.114;2023-02-20T12:25:14;2.63;;;1.20;;
9124;SDS011;4597;48.730;9.114;2023-02-20T12:30:32;1.83;;;1.40;;
9124;SDS011;4597;48.730;9.114;2023-02-20T12:33:32;3.03;;;1.50;;
9124;SDS011;4597;48.730;9.114;2023-02-20T12:44:53;1.43;;;1.33;;
9124;SDS011;4597;48.730;9.114;2023-02-20T12:47:33;4.63;;;1.63;;
9124;SDS011;4597;48.730;9.114;2023-02-20T12:53:07;1.50;;;1.40;;
9124;SDS011;4597;48.730;9.114;2023-02-20T12:55:55;2.33;;;1.40;;
9124;SDS011;4597;48.730;9.114;2023-02-20T12:58:59;3.50;;;1.40;;
9124;SDS011;4597;48.730;9.114;2023-02-20T13:01:28;2.17;;;1.30;;
9124;SDS011;4597;48.730;9.114;2023-02-20T13:07:01;2.90;;;1.70;;
9124;SDS011;4597;48.730;9.114;2023-02-20T13:12:05;3.23;;;1.47;;
9124;SDS011;4597;48.730;9.114;2023-02-20T13:14:57;2.90;;;1.83;;
9124;SDS011;4597;48.730;9.114;2023-02-20T13:18:03;4.57;;;1.67;;
9124;SDS011;4597;48.730;9.114;2023-02-20T13:20:45;1.93;;;1.40;;
9124;SDS011;4597;48.730;9.114;2023-02-20T13:25:39;2.47;;;1.27;;
9124;SDS011;4597;48.730;9.114;2023-02-20T13:30:45;2.13;;;1.50;;
9124;SDS011;4597;48.730;9.114;2023-02-20T13:33:31;2.53;;;1.50;;
9124;SDS011;4597;48.730;9.114;2023-02-20T13:35:57;4.97;;;1.87;;
9124;SDS011;4597;48.730;9.114;2023-02-20T13:38:26;4.20;;;1.67;;
9124;SDS011;4597;48.730;9.114;2023-02-20T13:51:27;3.87;;;2.10;;
9124;SDS011;4597;48.730;9.114;2023-02-20T13:53:50;3.63;;;1.80;;
9124;SDS011;4597;48.730;9.114;2023-02-20T13:56:18;3.83;;;2.00;;
9124;SDS011;4597;48.730;9.114;2023-02-20T13:58:55;2.53;;;1.70;;
9124;SDS011;4597;48.730;9.114;2023-02-20T14:01:23;2.93;;;1.50;;
9124;SDS011;4597;48.730;9.114;2023-02-20T14:04:02;1.60;;;1.50;;
9124;SDS011;4597;48.730;9.114;2023-02-20T14:06:29;5.47;;;2.03;;
9124;SDS011;4597;48.730;9.114;2023-02-20T14:09:13;3.20;;;1.70;;
9124;SDS011;4597;48.730;9.114;2023-02-20T14:11:42;2.33;;;1.80;;
9124;SDS011;4597;48.730;9.114;2023-02-20T14:14:10;5.80;;;1.67;;
9124;SDS011;4597;48.730;9.114;2023-02-20T14:16:51;5.43;;;1.97;;
9124;SDS011;4597;48.730;9.114;2023-02-20T14:19:26;3.57;;;1.70;;
9124;SDS011;4597;48.730;9.114;2023-02-20T14:21:53;4.13;;;2.10;;
9124;SDS011;4597;48.730;9.114;2023-02-20T14:24:27;3.60;;;1.57;;
9124;SDS011;4597;48.730;9.114;2023-02-20T14:26:53;4.10;;;1.97;;
9124;SDS011;4597;48.730;9.114;2023-02-20T14:31:54;3.23;;;1.80;;
9124;SDS011;4597;48.730;9.114;2023-02-20T14:34:33;2.07;;;1.43;;
9124;SDS011;4597;48.730;9.114;2023-02-20T14:37:20;3.33;;;1.97;;
9124;SDS011;4597;48.730;9.114;2023-02-20T14:42:48;1.80;;;1.70;;
9124;SDS011;4597;48.730;9.114;2023-02-20T14:45:15;1.63;;;1.53;;
9124;SDS011;4597;48.730;9.114;2023-02-20T14:47:53;3.90;;;1.77;;
9124;SDS011;4597;48.730;9.114;2023-02-20T14:50:21;3.10;;;1.63;;
9124;SDS011;4597;48.730;9.114;2023-02-20T14:55:40;5.70;;;1.50;;
9124;SDS011;4597;48.730;9.114;2023-02-20T14:58:07;3.27;;;1.77;;
9124;SDS011;4597;48.730;9.114;2023-02-20T15:00:35;3.27;;;1.87;;
9124;SDS011;4597;48.730;9.114;2023-02-20T15:03:06;5.83;;;1.90;;
9124;SDS011;4597;48.730;9.114;2023-02-20T15:05:43;3.70;;;1.50;;
9124;SDS011;4597;48.730;9.114;2023-02-20T15:10:53;2.87;;;1.70;;
9124;SDS011;4597;48.730;9.114;2023-02-20T15:13:23;2.90;;;2.00;;
9124;SDS011;4597;48.730;9.114;2023-02-20T15:18:50;4.37;;;2.10;;
9124;SDS011;4597;48.730;9.114;2023-02-20T15:21:32;3.07;;;1.73;;
9124;SDS011;4597;48.730;9.114;2023-02-20T15:26:50;3.20;;;1.73;;
9124;SDS011;4597;48.730;9.114;2023-02-20T15:31:56;3.60;;;1.73;;
9124;SDS011;4597;48.730;9.114;2023-02-20T15:34:24;2.37;;;1.73;;
9124;SDS011;4597;48.730;9.114;2023-02-20T15:37:10;3.13;;;1.83;;
9124;SDS011;4597;48.730;9.114;2023-02-20T15:39:43;3.63;;;1.77;;
9124;SDS011;4597;48.730;9.114;2023-02-20T15:42:11;3.00;;;2.17;;
9124;SDS011;4597;48.730;9.114;2023-02-20T15:44:37;1.97;;;1.87;;
9124;SDS011;4597;48.730;9.114;2023-02-20T15:47:02;2.80;;;1.97;;
9124;SDS011;4597;48.730;9.114;2023-02-20T15:49:28;3.60;;;1.87;;
9124;SDS011;4597;48.730;9.114;2023-02-20T15:51:53;3.20;;;2.23;;
9124;SDS011;4597;48.730;9.114;2023-02-20T15:54:19;3.27;;;2.30;;
9124;SDS011;4597;48.730;9.114;2023-02-20T15:56:44;3.10;;;1.90;;
9124;SDS011;4597;48.730;9.114;2023-02-20T15:59:11;2.90;;;2.27;;
9124;SDS011;4597;48.730;9.114;2023-02-20T16:01:37;3.37;;;1.90;;
9124;SDS011;4597;48.730;9.114;2023-02-20T16:04:04;6.03;;;2.23;;
9124;SDS011;4597;48.730;9.114;2023-02-20T16:06:31;2.43;;;2.13;;
9124;SDS011;4597;48.730;9.114;2023-02-20T16:08:57;5.87;;;1.97;;
9124;SDS011;4597;48.730;9.114;2023-02-20T16:11:23;2.87;;;2.10;;
9124;SDS011;4597;48.730;9.114;2023-02-20T16:13:55;3.97;;;2.53;;
9124;SDS011;4597;48.730;9.114;2023-02-20T16:16:27;4.23;;;2.40;;
9124;SDS011;4597;48.730;9.114;2023-02-20T16:19:00;3.80;;;2.10;;
9124;SDS011;4597;48.730;9.114;2023-02-20T16:21:27;2.37;;;2.07;;
9124;SDS011;4597;48.730;9.114;2023-02-20T16:23:52;3.53;;;2.00;;
9124;SDS011;4597;48.730;9.114;2023-02-20T16:26:19;2.50;;;1.87;;
9124;SDS011;4597;48.730;9.114;2023-02-20T16:28:48;2.03;;;1.87;;
9124;SDS011;4597;48.730;9.114;2023-02-20T16:34:16;3.20;;;1.73;;
9124;SDS011;4597;48.730;9.114;2023-02-20T16:36:46;2.33;;;1.73;;
9124;SDS011;4597;48.730;9.114;2023-02-20T16:39:12;2.70;;;1.80;;
9124;SDS011;4597;48.730;9.114;2023-02-20T16:41:37;3.67;;;1.90;;
9124;SDS011;4597;48.730;9.114;2023-02-20T16:44:10;2.73;;;1.40;;
9124;SDS011;4597;48.730;9.114;2023-02-20T16:46:56;3.60;;;2.00;;
9124;SDS011;4597;48.730;9.114;2023-02-20T16:49:21;4.87;;;2.20;;
9124;SDS011;4597;48.730;9.114;2023-02-20T16:51:47;2.20;;;2.00;;
9124;SDS011;4597;48.730;9.114;2023-02-20T16:54:15;1.97;;;1.87;;
9124;SDS011;4597;48.730;9.114;2023-02-20T16:56:42;3.67;;;2.73;;
9124;SDS011;4597;48.730;9.114;2023-02-20T16:59:07;5.30;;;2.80;;
9124;SDS011;4597;48.730;9.114;2023-02-20T17:01:34;4.03;;;2.10;;
9124;SDS011;4597;48.730;9.114;2023-02-20T17:04:00;4.07;;;1.93;;
9124;SDS011;4597;48.730;9.114;2023-02-20T17:06:25;2.80;;;2.13;;
9124;SDS011;4597;48.730;9.114;2023-02-20T17:08:54;3.60;;;2.20;;
9124;SDS011;4597;48.730;9.114;2023-02-20T17:11:20;2.50;;;2.27;;
9124;SDS011;4597;48.730;9.114;2023-02-20T17:13:46;3.33;;;2.30;;
9124;SDS011;4597;48.730;9.114;2023-02-20T17:16:11;3.70;;;2.37;;
9124;SDS011;4597;48.730;9.114;2023-02-20T17:18:37;4.93;;;2.57;;
9124;SDS011;4597;48.730;9.114;2023-02-20T17:21:02;4.60;;;2.40;;
9124;SDS011;4597;48.730;9.114;2023-02-20T17:23:28;5.47;;;2.63;;
9124;SDS011;4597;48.730;9.114;2023-02-20T17:25:54;4.13;;;2.80;;
9124;SDS011;4597;48.730;9.114;2023-02-20T17:28:19;4.20;;;3.03;;